Time;durP1;ratioP1;P1;durP2;ratioP2;P2;SDS_P1;SDS_P2;PMS_P1;PMS_P2;Temp;Humidity;BMP_temperature;BMP_pressure;BME280_temperature;BME280_humidity;BME280_pressure;Samples;Min_cycle;Max_cycle;Signal;HPM_P1;HPM_P2
2024/01/12 00:00:23;;;;;;;37.47;24.07;;;0.30;99.90;;;;;;5070515;28;20264;-71
2024/01/12 00:02:48;;;;;;;40.57;24.57;;;0.30;99.90;;;;;;5071490;28;20170;-71
2024/01/12 00:05:14;;;;;;;33.60;23.97;;;0.40;1.00;;;;;;5070684;28;20197;-71
2024/01/12 00:07:40;;;;;;;35.93;25.20;;;0.50;1.00;;;;;;5071508;28;20166;-71
2024/01/12 00:10:06;;;;;;;40.03;25.40;;;0.30;1.00;;;;;;5071435;28;20213;-72
2024/01/12 00:12:31;;;;;;;37.43;24.63;;;0.40;1.00;;;;;;5071705;28;20194;-71
2024/01/12 00:14:57;;;;;;;40.53;24.97;;;0.20;1.00;;;;;;5071405;28;20273;-71
2024/01/12 00:17:23;;;;;;;50.00;25.87;;;0.30;1.00;;;;;;5071334;28;20170;-71
2024/01/12 00:19:49;;;;;;;48.50;27.17;;;0.40;1.00;;;;;;5071320;28;20254;-71
2024/01/12 00:22:14;;;;;;;39.03;25.17;;;0.30;1.00;;;;;;5053389;28;20223;-71
2024/01/12 00:24:41;;;;;;;42.77;26.57;;;0.20;1.00;;;;;;5071297;28;20210;-72
2024/01/12 00:27:06;;;;;;;44.57;26.50;;;0.20;1.00;;;;;;5071541;28;20598;-72
2024/01/12 00:29:32;;;;;;;44.03;25.73;;;0.30;13.90;;;;;;5071515;28;20198;-72
2024/01/12 00:31:58;;;;;;;36.03;25.60;;;0.20;38.20;;;;;;5071272;28;20170;-72
2024/01/12 00:34:23;;;;;;;45.33;25.50;;;0.30;99.90;;;;;;5071178;28;20193;-71
2024/01/12 00:36:53;;;;;;;49.20;27.13;;;0.30;99.90;;;;;;5071337;28;20162;-72
2024/01/12 00:39:19;;;;;;;41.27;24.67;;;0.40;99.90;;;;;;5071146;28;20177;-72
2024/01/12 00:41:44;;;;;;;38.83;22.93;;;0.40;99.90;;;;;;5071319;28;20170;-72
2024/01/12 00:44:10;;;;;;;46.33;25.30;;;0.30;99.90;;;;;;5070666;28;20219;-72
2024/01/12 00:46:36;;;;;;;38.87;25.10;;;0.30;99.90;;;;;;5071294;28;20174;-72
2024/01/12 00:49:02;;;;;;;40.90;24.13;;;0.30;1.00;;;;;;5070758;28;20540;-72
2024/01/12 00:51:27;;;;;;;43.20;25.07;;;0.30;1.00;;;;;;5071155;28;20181;-72
2024/01/12 00:53:53;;;;;;;36.27;25.87;;;0.20;99.90;;;;;;5070860;28;20170;-72
2024/01/12 00:56:19;;;;;;;43.13;26.07;;;0.10;1.00;;;;;;5070756;28;20665;-72
2024/01/12 00:58:44;;;;;;;44.60;25.90;;;0.20;4.60;;;;;;5071082;28;20193;-72
2024/01/12 01:01:10;;;;;;;41.00;26.10;;;0.20;1.00;;;;;;5071347;28;20181;-72
2024/01/12 01:03:39;;;;;;;40.27;25.73;;;0.20;99.90;;;;;;5070775;28;20224;-72
2024/01/12 01:06:05;;;;;;;43.33;25.97;;;0.20;1.00;;;;;;5070935;28;20212;-72
2024/01/12 01:08:31;;;;;;;41.07;25.83;;;0.20;99.90;;;;;;5070815;28;20224;-73
2024/01/12 01:10:56;;;;;;;41.87;26.40;;;0.10;1.00;;;;;;5071465;28;20178;-72
2024/01/12 01:13:22;;;;;;;40.60;26.57;;;0.20;1.00;;;;;;5070841;28;20239;-72
2024/01/12 01:15:48;;;;;;;42.77;26.90;;;0.30;99.90;;;;;;5072109;28;20236;-73
2024/01/12 01:18:15;;;;;;;43.23;25.93;;;0.50;99.90;;;;;;5074291;28;20231;-72
2024/01/12 01:20:41;;;;;;;41.70;26.90;;;0.30;1.00;;;;;;5075135;28;20226;-72
2024/01/12 01:23:06;;;;;;;39.23;25.33;;;0.40;99.90;;;;;;5074937;28;20590;-71
2024/01/12 01:25:32;;;;;;;43.03;24.90;;;0.40;1.00;;;;;;5074702;28;20217;-72
2024/01/12 01:27:57;;;;;;;44.43;26.50;;;0.30;1.00;;;;;;5074469;28;20200;-71
2024/01/12 01:30:23;;;;;;;41.87;26.80;;;0.40;1.00;;;;;;5074796;28;20250;-71
2024/01/12 01:32:49;;;;;;;42.97;27.90;;;0.50;1.00;;;;;;5074815;28;20205;-71
2024/01/12 01:35:16;;;;;;;41.03;25.40;;;0.50;1.00;;;;;;5074455;28;20194;-71
2024/01/12 01:37:42;;;;;;;43.80;27.20;;;0.50;1.00;;;;;;5074422;28;20178;-71
2024/01/12 01:40:08;;;;;;;51.90;27.17;;;0.50;1.00;;;;;;5074133;28;20653;-72
2024/01/12 01:42:34;;;;;;;45.90;25.60;;;0.70;1.00;;;;;;5074709;28;20253;-72
2024/01/12 01:45:02;;;;;;;44.37;26.03;;;0.50;99.90;;;;;;5074230;28;20201;-72
2024/01/12 01:47:28;;;;;;;43.93;26.43;;;0.50;99.90;;;;;;5074343;28;20598;-72
2024/01/12 01:49:55;;;;;;;41.60;25.97;;;0.50;1.00;;;;;;5074651;28;20304;-73
2024/01/12 01:52:23;;;;;;;43.93;25.93;;;0.60;1.00;;;;;;5074157;28;20174;-72
2024/01/12 01:54:49;;;;;;;43.00;27.23;;;0.50;1.00;;;;;;5074111;28;20190;-72
2024/01/12 01:57:15;;;;;;;37.57;26.97;;;0.60;19.80;;;;;;5074103;28;20178;-72
2024/01/12 01:59:41;;;;;;;44.37;26.60;;;0.50;1.00;;;;;;5074300;28;20174;-71
2024/01/12 02:02:08;;;;;;;40.43;26.80;;;0.60;99.90;;;;;;5074261;28;20170;-71
2024/01/12 02:04:34;;;;;;;43.43;28.07;;;0.60;1.00;;;;;;5074187;28;20232;-71
2024/01/12 02:07:00;;;;;;;39.93;27.07;;;0.70;1.00;;;;;;5073705;28;20178;-72
2024/01/12 02:09:28;;;;;;;35.80;24.43;;;0.50;1.00;;;;;;5073842;28;20249;-70
2024/01/12 02:11:54;;;;;;;47.30;27.53;;;0.60;1.00;;;;;;5074169;28;20560;-71
2024/01/12 02:14:20;;;;;;;43.33;27.47;;;0.60;80.90;;;;;;5073713;28;20212;-71
2024/01/12 02:16:46;;;;;;;44.60;26.57;;;0.50;99.90;;;;;;5074211;28;20174;-70
2024/01/12 02:19:12;;;;;;;46.80;28.03;;;0.60;78.00;;;;;;5073616;28;20182;-71
2024/01/12 02:21:37;;;;;;;44.53;26.20;;;0.60;99.90;;;;;;5073857;28;20174;-71
2024/01/12 02:24:03;;;;;;;47.63;29.57;;;0.30;99.90;;;;;;5073419;28;20182;-71
2024/01/12 02:26:29;;;;;;;43.57;27.27;;;0.30;1.00;;;;;;5072909;28;20288;-71
2024/01/12 02:28:54;;;;;;;45.93;28.77;;;0.50;1.00;;;;;;5073443;28;20244;-72
2024/01/12 02:31:20;;;;;;;57.17;29.50;;;0.50;1.00;;;;;;5074167;28;20166;-72
2024/01/12 02:33:49;;;;;;;44.57;27.30;;;0.50;1.00;;;;;;5073423;28;20166;-71
2024/01/12 02:36:15;;;;;;;41.37;27.03;;;0.50;1.00;;;;;;5073069;28;20205;-71
2024/01/12 02:38:41;;;;;;;47.87;29.27;;;0.60;99.90;;;;;;5073125;28;20185;-73
2024/01/12 02:41:06;;;;;;;44.60;28.47;;;0.50;99.90;;;;;;5073399;28;20166;-72
2024/01/12 02:43:32;;;;;;;56.17;31.87;;;0.60;30.40;;;;;;5073335;28;20535;-70
2024/01/12 02:45:57;;;;;;;53.90;31.23;;;0.50;1.00;;;;;;5073230;28;20248;-71
2024/01/12 02:48:23;;;;;;;51.83;30.60;;;0.70;99.90;;;;;;5072784;28;20192;-71
2024/01/12 02:50:49;;;;;;;60.60;31.97;;;0.80;52.30;;;;;;5073273;28;20200;-72
2024/01/12 02:53:14;;;;;;;52.63;31.87;;;0.70;1.00;;;;;;5072261;28;20187;-71
2024/01/12 02:55:40;;;;;;;54.90;31.20;;;0.60;99.90;;;;;;5073083;28;20190;-71
2024/01/12 02:58:06;;;;;;;49.37;30.83;;;0.70;99.90;;;;;;5072907;28;20179;-71
2024/01/12 03:00:31;;;;;;;57.47;31.93;;;0.60;99.90;;;;;;5072946;28;20541;-71
2024/01/12 03:02:57;;;;;;;52.70;31.23;;;0.70;99.90;;;;;;5073164;28;20336;-71
2024/01/12 03:05:23;;;;;;;61.97;31.90;;;0.80;99.90;;;;;;5054959;28;20741;-71
2024/01/12 03:07:48;;;;;;;56.37;32.33;;;0.70;99.90;;;;;;5073034;28;20284;-71
2024/01/12 03:10:16;;;;;;;55.40;30.40;;;0.70;1.00;;;;;;5073171;28;20198;-71
2024/01/12 03:12:42;;;;;;;62.17;33.17;;;0.70;1.00;;;;;;5073914;28;20162;-71
2024/01/12 03:15:08;;;;;;;57.07;32.83;;;0.60;99.90;;;;;;5072392;28;20246;-72
2024/01/12 03:17:33;;;;;;;59.37;33.73;;;0.60;1.00;;;;;;5071758;28;20181;-71
2024/01/12 03:19:59;;;;;;;58.60;33.50;;;0.70;1.00;;;;;;5072876;28;20253;-71
2024/01/12 03:22:25;;;;;;;58.23;32.77;;;0.80;1.00;;;;;;5072630;28;20488;-70
2024/01/12 03:24:50;;;;;;;61.53;33.23;;;0.80;1.00;;;;;;5072594;28;20217;-70
2024/01/12 03:27:16;;;;;;;57.43;33.57;;;0.70;1.00;;;;;;5072393;28;20620;-71
2024/01/12 03:29:41;;;;;;;68.63;33.80;;;0.80;99.90;;;;;;5072036;28;20228;-71
2024/01/12 03:32:07;;;;;;;66.70;35.77;;;0.60;99.90;;;;;;5072340;28;20201;-71
2024/01/12 03:34:32;;;;;;;61.60;35.63;;;0.70;1.00;;;;;;5054355;28;20201;-71
2024/01/12 03:36:58;;;;;;;67.97;34.47;;;0.70;1.00;;;;;;5072413;28;20167;-71
2024/01/12 03:39:24;;;;;;;68.13;35.53;;;0.70;1.00;;;;;;5071196;28;20174;-71
2024/01/12 03:41:49;;;;;;;66.77;34.13;;;0.70;1.00;;;;;;5072208;28;20193;-71
2024/01/12 03:44:15;;;;;;;66.03;34.67;;;0.70;1.00;;;;;;5071819;28;20182;-71
2024/01/12 03:46:40;;;;;;;59.37;34.33;;;0.80;1.00;;;;;;5072190;28;20170;-72
2024/01/12 03:49:06;;;;;;;66.17;36.17;;;0.90;1.00;;;;;;5071780;28;20297;-71
2024/01/12 03:51:32;;;;;;;75.43;37.40;;;0.80;1.00;;;;;;5072042;28;20166;-73
2024/01/12 03:53:58;;;;;;;62.80;34.23;;;0.90;1.00;;;;;;5071017;28;20178;-73
2024/01/12 03:56:23;;;;;;;71.57;36.47;;;0.80;1.00;;;;;;5071594;28;20194;-72
2024/01/12 03:58:49;;;;;;;69.17;37.13;;;0.90;1.00;;;;;;5071804;28;20257;-71
2024/01/12 04:01:14;;;;;;;67.77;37.33;;;0.70;1.00;;;;;;5071873;28;20174;-72
2024/01/12 04:03:41;;;;;;;73.07;37.90;;;0.60;1.00;;;;;;5071839;28;20182;-72
2024/01/12 04:06:08;;;;;;;71.97;38.17;;;0.70;1.00;;;;;;5071572;28;20213;-72
2024/01/12 04:08:33;;;;;;;69.53;38.97;;;0.80;1.00;;;;;;5071556;28;20204;-72
2024/01/12 04:10:59;;;;;;;83.87;38.03;;;0.90;1.00;;;;;;5071472;28;20213;-72
2024/01/12 04:13:24;;;;;;;79.47;39.47;;;0.70;1.00;;;;;;5071735;28;20170;-71
2024/01/12 04:15:51;;;;;;;73.33;37.23;;;1.00;1.00;;;;;;5071611;28;20526;-71
2024/01/12 04:18:16;;;;;;;65.77;37.20;;;0.80;1.00;;;;;;5071301;28;20273;-72
2024/01/12 04:20:42;;;;;;;81.73;37.37;;;0.80;1.00;;;;;;5071664;28;20690;-71
2024/01/12 04:23:08;;;;;;;71.03;38.33;;;0.80;1.00;;;;;;5071575;28;20170;-72
2024/01/12 04:25:33;;;;;;;74.30;37.00;;;0.90;1.00;;;;;;5071159;28;20295;-71
2024/01/12 04:27:59;;;;;;;73.23;38.57;;;0.90;1.00;;;;;;5071272;28;20174;-72
2024/01/12 04:30:24;;;;;;;68.60;37.90;;;0.90;1.00;;;;;;5071465;28;20594;-71
2024/01/12 04:32:50;;;;;;;72.00;37.37;;;1.00;1.00;;;;;;5071504;28;20206;-71
2024/01/12 04:35:16;;;;;;;77.70;37.60;;;1.00;1.00;;;;;;5071735;28;20193;-71
2024/01/12 04:37:42;;;;;;;70.80;37.80;;;1.00;1.00;;;;;;5071337;28;20644;-71
2024/01/12 04:40:07;;;;;;;70.10;36.27;;;1.00;1.00;;;;;;5071133;28;20181;-71
2024/01/12 04:42:33;;;;;;;69.07;37.63;;;0.90;1.00;;;;;;5071448;28;20243;-72
2024/01/12 04:44:58;;;;;;;75.83;38.67;;;1.00;1.00;;;;;;5071530;28;20197;-71
2024/01/12 04:47:24;;;;;;;81.37;37.27;;;1.00;1.00;;;;;;5071305;28;20166;-71
2024/01/12 04:49:50;;;;;;;77.67;37.70;;;0.90;1.00;;;;;;5070984;28;20242;-71
2024/01/12 04:52:15;;;;;;;81.90;37.43;;;1.00;1.00;;;;;;5071013;28;20557;-71
2024/01/12 04:54:41;;;;;;;75.17;38.33;;;0.80;1.00;;;;;;5071121;28;20194;-71
2024/01/12 04:57:06;;;;;;;80.97;38.83;;;0.90;1.00;;;;;;5071251;28;20586;-72
2024/01/12 04:59:32;;;;;;;87.97;40.40;;;0.80;1.00;;;;;;5071738;28;20174;-71
2024/01/12 05:01:57;;;;;;;94.53;42.23;;;1.00;1.00;;;;;;5071336;28;20249;-71
2024/01/12 05:04:23;;;;;;;86.23;39.13;;;0.90;1.00;;;;;;5070617;28;20182;-71
2024/01/12 05:06:48;;;;;;;83.03;39.37;;;0.90;1.00;;;;;;5071575;28;20766;-70
2024/01/12 05:09:14;;;;;;;90.37;39.97;;;0.90;1.00;;;;;;5070937;28;20194;-71
2024/01/12 05:11:40;;;;;;;91.00;40.03;;;0.90;1.00;;;;;;5071022;28;20257;-71
2024/01/12 05:14:06;;;;;;;83.63;42.00;;;0.90;1.00;;;;;;5070994;28;20223;-71
2024/01/12 05:16:31;;;;;;;90.60;43.10;;;0.90;1.00;;;;;;5071418;28;20239;-71
2024/01/12 05:18:57;;;;;;;103.10;46.40;;;0.90;1.00;;;;;;5071159;28;20232;-71
2024/01/12 05:21:22;;;;;;;99.50;44.37;;;0.90;1.00;;;;;;5070742;28;20186;-71
2024/01/12 05:23:48;;;;;;;216.77;77.87;;;1.00;1.00;;;;;;5070912;28;20224;-71
2024/01/12 05:26:14;;;;;;;93.00;40.57;;;1.00;1.00;;;;;;5071087;28;20233;-71
2024/01/12 05:28:39;;;;;;;84.97;40.30;;;0.80;1.00;;;;;;5070937;28;20175;-71
2024/01/12 05:31:08;;;;;;;90.83;41.77;;;0.90;1.00;;;;;;5070936;28;20235;-71
2024/01/12 05:33:33;;;;;;;79.37;39.77;;;0.80;1.00;;;;;;5070977;28;20166;-71
2024/01/12 05:35:59;;;;;;;84.73;39.17;;;1.00;1.00;;;;;;5070843;28;20703;-71
2024/01/12 05:38:24;;;;;;;84.93;41.43;;;0.90;1.00;;;;;;5070819;28;20182;-71
2024/01/12 05:40:50;;;;;;;73.30;38.33;;;0.80;1.00;;;;;;5071037;28;20167;-71
2024/01/12 05:43:17;;;;;;;79.47;39.37;;;0.90;1.00;;;;;;5071179;28;20170;-71
2024/01/12 05:45:43;;;;;;;93.67;41.73;;;0.80;11.80;;;;;;5071024;28;20190;-71
2024/01/12 05:48:09;;;;;;;96.93;40.60;;;0.90;9.40;;;;;;5070834;28;20185;-71
2024/01/12 05:50:35;;;;;;;89.73;41.37;;;1.00;11.10;;;;;;5071643;28;20205;-76
2024/01/12 05:53:00;;;;;;;92.80;41.10;;;0.90;4.10;;;;;;5070641;28;20565;-71
2024/01/12 05:55:26;;;;;;;107.23;43.63;;;0.80;12.00;;;;;;5068931;28;20197;-72
2024/01/12 05:57:51;;;;;;;95.13;41.07;;;0.80;25.90;;;;;;5071247;28;20173;-71
2024/01/12 06:00:17;;;;;;;102.63;50.87;;;0.90;45.10;;;;;;5070860;28;20316;-71
2024/01/12 06:02:43;;;;;;;87.47;43.37;;;0.80;46.40;;;;;;5073058;28;20572;-71
2024/01/12 06:05:09;;;;;;;100.63;41.23;;;0.90;56.20;;;;;;5073925;28;20576;-71
2024/01/12 06:07:34;;;;;;;97.60;41.13;;;1.00;46.00;;;;;;5073996;28;20177;-71
2024/01/12 06:10:00;;;;;;;99.13;43.37;;;0.90;57.50;;;;;;5073854;28;20206;-72
2024/01/12 06:12:25;;;;;;;99.70;41.73;;;1.00;61.70;;;;;;5074086;28;20535;-70
2024/01/12 06:14:53;;;;;;;99.13;43.07;;;1.00;74.60;;;;;;5074180;28;20186;-72
2024/01/12 06:17:19;;;;;;;101.13;42.00;;;1.00;74.50;;;;;;5073584;28;20198;-71
2024/01/12 06:19:44;;;;;;;92.50;39.43;;;1.00;65.40;;;;;;5074126;28;20247;-71
2024/01/12 06:22:10;;;;;;;101.73;43.37;;;0.90;36.80;;;;;;5074186;28;20236;-72
2024/01/12 06:24:35;;;;;;;96.37;40.23;;;1.10;10.30;;;;;;5073872;28;20271;-71
2024/01/12 06:27:02;;;;;;;98.07;41.10;;;0.90;1.10;;;;;;5073787;28;20174;-71
2024/01/12 06:29:28;;;;;;;97.40;40.47;;;1.10;1.00;;;;;;5073526;28;20284;-71
2024/01/12 06:31:53;;;;;;;96.17;38.93;;;1.00;1.00;;;;;;5073250;28;20178;-71
2024/01/12 06:34:19;;;;;;;92.30;42.03;;;1.10;6.70;;;;;;5073463;28;20249;-71
2024/01/12 06:36:45;;;;;;;107.63;41.33;;;1.00;1.00;;;;;;5073638;28;20170;-71
2024/01/12 06:39:10;;;;;;;100.57;40.80;;;1.10;1.00;;;;;;5073878;28;20170;-72
2024/01/12 06:41:42;;;;;;;85.53;39.27;;;1.00;1.00;;;;;;5073331;28;20661;-71
2024/01/12 06:44:08;;;;;;;91.87;39.80;;;1.10;4.30;;;;;;5072916;28;20170;-71
2024/01/12 06:46:35;;;;;;;96.47;41.60;;;1.10;1.00;;;;;;5073571;28;20181;-70
2024/01/12 06:49:00;;;;;;;93.87;39.33;;;1.00;2.70;;;;;;5072826;28;20186;-71
2024/01/12 06:51:26;;;;;;;97.27;39.57;;;1.10;1.00;;;;;;5073098;28;20213;-71
2024/01/12 06:53:52;;;;;;;102.03;38.13;;;1.10;1.00;;;;;;5072952;28;20174;-70
2024/01/12 06:56:23;;;;;;;100.13;39.40;;;1.10;1.00;;;;;;5073334;28;20205;-71
2024/01/12 06:58:49;;;;;;;92.87;38.60;;;0.90;8.50;;;;;;5073318;28;20174;-72
2024/01/12 07:01:18;;;;;;;100.77;40.47;;;1.00;29.40;;;;;;5072068;28;20185;-71
2024/01/12 07:03:44;;;;;;;97.93;38.53;;;1.10;54.60;;;;;;5072840;28;20660;-71
2024/01/12 07:06:10;;;;;;;107.30;39.10;;;0.90;75.70;;;;;;5071897;28;20201;-71
2024/01/12 07:08:35;;;;;;;90.37;39.63;;;1.00;95.20;;;;;;5072749;28;20177;-71
2024/01/12 07:11:05;;;;;;;121.30;43.03;;;1.00;96.80;;;;;;5072814;28;20170;-71
2024/01/12 07:13:30;;;;;;;100.33;40.00;;;0.90;95.50;;;;;;5072047;28;20182;-71
2024/01/12 07:15:56;;;;;;;102.97;38.70;;;1.00;99.90;;;;;;5071704;28;20232;-71
2024/01/12 07:18:22;;;;;;;102.43;40.60;;;1.00;99.90;;;;;;5071952;28;20178;-72
2024/01/12 07:20:48;;;;;;;99.83;42.70;;;1.10;99.90;;;;;;5073101;28;20668;-71
2024/01/12 07:23:13;;;;;;;116.70;43.17;;;1.00;99.90;;;;;;5071040;28;20177;-71
2024/01/12 07:25:39;;;;;;;104.40;41.30;;;1.10;99.90;;;;;;5072458;28;20210;-70
2024/01/12 07:28:05;;;;;;;112.60;45.40;;;1.10;99.90;;;;;;5072996;28;20177;-70
2024/01/12 07:30:31;;;;;;;108.63;43.97;;;1.10;99.90;;;;;;5072835;28;20301;-71
2024/01/12 07:32:58;;;;;;;111.67;43.27;;;1.10;99.90;;;;;;5073455;28;20637;-70
2024/01/12 07:35:23;;;;;;;109.70;40.47;;;1.00;99.90;;;;;;5073539;28;20186;-70
2024/01/12 07:37:50;;;;;;;94.50;40.57;;;1.10;99.90;;;;;;5073658;28;20243;-70
2024/01/12 07:40:16;;;;;;;99.90;40.23;;;1.20;99.90;;;;;;5073320;28;20602;-69
2024/01/12 07:42:42;;;;;;;114.77;40.73;;;1.10;99.90;;;;;;5072911;28;20182;-69
2024/01/12 07:45:08;;;;;;;100.13;41.03;;;1.20;99.90;;;;;;5072509;28;20204;-69
2024/01/12 07:47:34;;;;;;;104.93;39.97;;;1.20;99.90;;;;;;5055014;28;20174;-71
2024/01/12 07:50:00;;;;;;;99.03;40.33;;;1.10;99.90;;;;;;5071802;28;20590;-70
2024/01/12 07:52:26;;;;;;;106.90;41.07;;;1.00;99.90;;;;;;5071697;28;20190;-71
2024/01/12 07:54:52;;;;;;;102.40;38.77;;;1.10;99.90;;;;;;5052044;28;20193;-71
2024/01/12 07:57:17;;;;;;;101.37;37.57;;;1.00;99.90;;;;;;5059643;28;20174;-69
2024/01/12 07:59:43;;;;;;;102.57;36.90;;;1.20;99.90;;;;;;5072333;28;20653;-69
2024/01/12 08:02:09;;;;;;;105.87;38.33;;;1.20;99.90;;;;;;5071559;28;20252;-69
2024/01/12 08:04:37;;;;;;;107.17;39.87;;;1.10;99.90;;;;;;5072347;28;20236;-70
2024/01/12 08:07:03;;;;;;;101.63;39.17;;;1.00;99.90;;;;;;5072285;28;20202;-69
2024/01/12 08:09:29;;;;;;;103.37;38.67;;;1.10;99.90;;;;;;5054369;28;20238;-70
2024/01/12 08:11:54;;;;;;;103.53;42.53;;;1.20;99.90;;;;;;5058492;28;20536;-70
2024/01/12 08:14:20;;;;;;;105.23;37.63;;;1.20;99.90;;;;;;5071481;28;20179;-70
2024/01/12 08:16:46;;;;;;;106.30;38.60;;;1.30;99.90;;;;;;5071610;28;20533;-70
2024/01/12 08:19:11;;;;;;;106.07;38.53;;;1.20;99.90;;;;;;5070844;28;20181;-71
2024/01/12 08:21:37;;;;;;;110.03;38.13;;;1.30;99.90;;;;;;5071330;28;20657;-70
2024/01/12 08:24:03;;;;;;;107.90;37.23;;;1.40;99.90;;;;;;5070503;28;20174;-70
2024/01/12 08:26:28;;;;;;;109.50;39.10;;;1.30;99.90;;;;;;5071063;28;20606;-71
2024/01/12 08:28:56;;;;;;;102.70;37.70;;;1.30;99.90;;;;;;5070784;28;20198;-70
2024/01/12 08:31:22;;;;;;;97.93;35.70;;;1.40;94.10;;;;;;5071717;28;20162;-69
2024/01/12 08:33:49;;;;;;;106.80;37.27;;;1.30;86.00;;;;;;5071403;28;20541;-70
2024/01/12 08:36:15;;;;;;;98.13;36.43;;;1.40;81.60;;;;;;5071629;28;20230;-70
2024/01/12 08:38:41;;;;;;;90.57;36.77;;;1.40;96.10;;;;;;5070717;28;20236;-69
2024/01/12 08:41:07;;;;;;;95.47;35.83;;;1.40;99.90;;;;;;5071104;28;20183;-70
2024/01/12 08:43:32;;;;;;;103.17;36.93;;;1.50;97.40;;;;;;5071295;28;20181;-70
2024/01/12 08:45:58;;;;;;;103.27;36.53;;;1.40;99.90;;;;;;5071289;28;20197;-70
2024/01/12 08:48:23;;;;;;;106.17;37.03;;;1.40;99.90;;;;;;5070706;28;20170;-71
2024/01/12 08:50:49;;;;;;;103.83;36.17;;;1.50;99.90;;;;;;5072084;28;20197;-71
2024/01/12 08:53:16;;;;;;;88.90;35.13;;;1.50;99.90;;;;;;5071518;28;20509;-71
2024/01/12 08:55:42;;;;;;;96.10;36.77;;;1.50;99.90;;;;;;5071927;28;20186;-71
2024/01/12 08:58:07;;;;;;;99.23;40.00;;;1.60;99.90;;;;;;5071768;28;20587;-71
2024/01/12 09:00:33;;;;;;;106.10;42.97;;;1.40;99.90;;;;;;5072113;28;20262;-71
2024/01/12 09:02:58;;;;;;;79.53;34.90;;;1.60;99.90;;;;;;5070729;28;20182;-70
2024/01/12 09:05:24;;;;;;;89.57;36.33;;;1.60;99.90;;;;;;5070673;28;20250;-70
2024/01/12 09:07:50;;;;;;;88.47;34.53;;;1.50;99.90;;;;;;5070772;28;20667;-70
2024/01/12 09:10:15;;;;;;;75.87;30.17;;;1.60;99.90;;;;;;5070737;28;20210;-70
2024/01/12 09:12:41;;;;;;;76.70;31.43;;;1.70;99.90;;;;;;5071044;28;20529;-70
2024/01/12 09:15:08;;;;;;;78.70;30.00;;;1.70;99.90;;;;;;5070469;28;20194;-70
2024/01/12 09:17:34;;;;;;;75.03;31.70;;;1.70;99.90;;;;;;5070653;28;20746;-70
2024/01/12 09:20:00;;;;;;;82.80;31.43;;;1.90;99.90;;;;;;5070355;28;20497;-70
2024/01/12 09:22:25;;;;;;;85.00;33.63;;;1.70;99.90;;;;;;5070634;28;20181;-70
2024/01/12 09:24:52;;;;;;;87.10;34.23;;;1.70;99.90;;;;;;5070927;28;20217;-70
2024/01/12 09:27:17;;;;;;;84.83;34.57;;;1.80;99.90;;;;;;5070414;28;20189;-70
2024/01/12 09:29:43;;;;;;;96.63;33.17;;;1.70;99.90;;;;;;5070454;28;20586;-70
2024/01/12 09:32:09;;;;;;;90.40;33.40;;;1.70;99.90;;;;;;5070888;28;20292;-70
2024/01/12 09:34:35;;;;;;;90.17;33.73;;;1.90;99.90;;;;;;5070406;28;20281;-70
2024/01/12 09:37:01;;;;;;;92.10;34.63;;;1.90;99.90;;;;;;5071991;28;20216;-70
2024/01/12 09:39:26;;;;;;;100.70;35.27;;;1.80;99.90;;;;;;5074798;28;20178;-70
2024/01/12 09:42:00;;;;;;;86.13;33.93;;;1.70;88.20;;;;;;5074438;28;20182;-69
2024/01/12 09:44:27;;;;;;;89.70;32.63;;;1.80;92.30;;;;;;5074661;28;20174;-71
2024/01/12 09:46:59;;;;;;;125.97;56.50;;;2.00;87.90;;;;;;5074939;28;20612;-70
2024/01/12 09:49:30;;;;;;;74.97;32.97;;;1.80;73.90;;;;;;5073918;28;20255;-70
2024/01/12 09:51:59;;;;;;;77.67;32.67;;;1.90;55.40;;;;;;5074136;28;20182;-70
2024/01/12 09:54:25;;;;;;;89.10;33.53;;;1.70;56.50;;;;;;5075786;28;20178;-70
2024/01/12 09:56:56;;;;;;;75.50;31.43;;;1.80;90.50;;;;;;5077128;28;20219;-71
2024/01/12 09:59:22;;;;;;;82.77;31.77;;;1.90;99.90;;;;;;5076154;28;20186;-70
2024/01/12 10:01:49;;;;;;;79.80;31.13;;;1.90;99.90;;;;;;5073407;28;20247;-70
2024/01/12 10:04:14;;;;;;;87.27;34.97;;;2.00;99.90;;;;;;5074947;28;20552;-71
2024/01/12 10:06:40;;;;;;;111.97;51.87;;;1.80;96.10;;;;;;5074261;28;20182;-70
2024/01/12 10:09:06;;;;;;;68.03;31.47;;;1.80;91.30;;;;;;5073439;28;20197;-71
2024/01/12 10:11:32;;;;;;;84.83;34.33;;;1.90;69.20;;;;;;5073999;28;20665;-70
2024/01/12 10:13:58;;;;;;;71.23;29.17;;;1.90;81.30;;;;;;5073681;28;20281;-71
2024/01/12 10:16:28;;;;;;;80.97;30.33;;;1.80;72.50;;;;;;5073765;28;20269;-71
2024/01/12 10:18:56;;;;;;;85.27;33.80;;;1.80;94.70;;;;;;5073770;28;20594;-70
2024/01/12 10:21:22;;;;;;;94.60;39.10;;;1.90;99.90;;;;;;5073471;28;20182;-71
2024/01/12 10:23:47;;;;;;;74.17;30.80;;;1.90;99.90;;;;;;5073667;28;20227;-70
2024/01/12 10:26:16;;;;;;;59.30;28.80;;;2.00;99.90;;;;;;5073269;28;20252;-70
2024/01/12 10:28:42;;;;;;;140.37;59.87;;;2.00;98.90;;;;;;5072359;28;20606;-71
2024/01/12 10:31:08;;;;;;;58.13;29.50;;;1.90;99.90;;;;;;5072292;28;20202;-70
2024/01/12 10:33:34;;;;;;;61.37;28.50;;;1.90;99.90;;;;;;5072759;28;20202;-72
2024/01/12 10:36:09;;;;;;;62.10;28.93;;;1.80;63.40;;;;;;5074229;28;20244;-71
2024/01/12 10:38:38;;;;;;;68.30;31.97;;;1.90;69.10;;;;;;5079173;28;20174;-70
2024/01/12 10:41:06;;;;;;;73.77;31.23;;;1.90;82.20;;;;;;5073510;28;20265;-70
2024/01/12 10:43:36;;;;;;;52.57;25.63;;;1.80;65.60;;;;;;5085238;28;20188;-70
2024/01/12 10:46:10;;;;;;;63.83;27.50;;;1.90;59.20;;;;;;5072322;28;20260;-70
2024/01/12 10:48:45;;;;;;;55.10;24.73;;;1.80;58.60;;;;;;5071106;28;20669;-70
2024/01/12 10:51:14;;;;;;;47.53;23.73;;;2.00;76.60;;;;;;5072955;28;20174;-71
2024/01/12 10:53:48;;;;;;;51.40;26.23;;;1.90;95.20;;;;;;5073234;28;20171;-70
2024/01/12 10:56:14;;;;;;;55.17;25.23;;;2.00;96.20;;;;;;5072798;28;20665;-71
2024/01/12 10:58:44;;;;;;;59.37;26.80;;;2.00;63.40;;;;;;5072642;28;20221;-71
2024/01/12 11:01:11;;;;;;;50.77;25.17;;;2.00;82.90;;;;;;5072716;28;20170;-71
2024/01/12 11:03:37;;;;;;;56.27;25.40;;;2.10;92.40;;;;;;5072763;28;20227;-71
2024/01/12 11:06:05;;;;;;;48.90;24.00;;;2.10;77.70;;;;;;5072731;28;20189;-70
2024/01/12 11:08:32;;;;;;;47.83;24.30;;;2.20;65.30;;;;;;5072677;28;20169;-70
2024/01/12 11:10:59;;;;;;;50.13;25.20;;;2.00;73.20;;;;;;5072721;28;20198;-70
2024/01/12 11:13:25;;;;;;;58.90;25.10;;;2.10;68.70;;;;;;5072851;28;20202;-70
2024/01/12 11:15:53;;;;;;;46.77;23.80;;;2.00;73.20;;;;;;5072703;28;20685;-71
2024/01/12 11:18:19;;;;;;;47.73;22.70;;;2.00;71.80;;;;;;5062900;28;20174;-70
2024/01/12 11:20:45;;;;;;;49.13;23.07;;;1.90;88.10;;;;;;5073047;28;20296;-71
2024/01/12 11:23:11;;;;;;;49.37;24.73;;;1.90;92.20;;;;;;5073340;28;20299;-70
2024/01/12 11:25:37;;;;;;;45.57;23.70;;;2.10;94.60;;;;;;5074333;28;20213;-70
2024/01/12 11:28:02;;;;;;;52.00;23.43;;;2.10;90.30;;;;;;5073274;28;20174;-70
2024/01/12 11:30:29;;;;;;;55.27;24.67;;;2.10;85.80;;;;;;5072266;28;20238;-70
2024/01/12 11:33:04;;;;;;;44.90;23.87;;;2.10;52.30;;;;;;5072448;28;20186;-70
2024/01/12 11:35:31;;;;;;;50.13;22.93;;;2.00;47.10;;;;;;5072690;28;20255;-70
2024/01/12 11:38:02;;;;;;;46.47;22.23;;;2.20;45.40;;;;;;5072033;28;20174;-70
2024/01/12 11:40:28;;;;;;;45.43;23.50;;;2.10;52.70;;;;;;5052668;28;20185;-70
2024/01/12 11:42:54;;;;;;;55.63;23.57;;;2.10;57.60;;;;;;5052489;28;20175;-71
2024/01/12 11:45:20;;;;;;;46.47;23.87;;;2.10;63.20;;;;;;5052051;28;20205;-71
2024/01/12 11:47:45;;;;;;;41.57;20.63;;;2.10;25.00;;;;;;5051991;28;20175;-70
2024/01/12 11:50:14;;;;;;;49.33;21.63;;;2.10;6.10;;;;;;5052203;28;20289;-70
2024/01/12 11:52:40;;;;;;;45.20;22.73;;;2.00;1.00;;;;;;5052124;28;20166;-71
2024/01/12 11:55:07;;;;;;;46.93;22.93;;;2.10;20.50;;;;;;5071498;28;20205;-71
2024/01/12 11:57:34;;;;;;;56.50;25.53;;;2.00;8.70;;;;;;5071508;28;20634;-70
2024/01/12 12:00:00;;;;;;;71.43;37.47;;;1.90;26.00;;;;;;5071218;28;20178;-71
2024/01/12 12:02:25;;;;;;;46.37;23.80;;;2.20;41.70;;;;;;5071844;28;20545;-70
2024/01/12 12:04:51;;;;;;;40.10;22.13;;;1.90;20.50;;;;;;5071705;28;20194;-70
2024/01/12 12:07:27;;;;;;;50.43;22.97;;;2.00;23.80;;;;;;5071654;28;20192;-70
2024/01/12 12:09:53;;;;;;;49.30;22.73;;;2.20;25.00;;;;;;5071426;28;20214;-70
2024/01/12 12:12:20;;;;;;;48.13;23.57;;;2.10;23.40;;;;;;5072355;28;20198;-71
2024/01/12 12:15:05;;;;;;;46.97;23.03;;;2.30;18.30;;;;;;5072702;28;20424;-71
2024/01/12 12:17:36;;;;;;;53.93;24.63;;;2.10;21.30;;;;;;5072456;28;20173;-71
2024/01/12 12:20:05;;;;;;;49.67;28.57;;;2.40;18.90;;;;;;5072454;28;20174;-70
2024/01/12 12:22:31;;;;;;;44.30;22.90;;;2.40;5.10;;;;;;5072745;28;20547;-71
2024/01/12 12:24:56;;;;;;;62.30;31.60;;;2.30;1.00;;;;;;5071974;28;20214;-70
2024/01/12 12:27:22;;;;;;;54.47;22.60;;;2.50;1.00;;;;;;5072046;28;20633;-70
2024/01/12 12:29:50;;;;;;;43.87;22.73;;;2.40;1.00;;;;;;5072315;28;20241;-70
2024/01/12 12:32:15;;;;;;;41.47;22.40;;;2.40;1.00;;;;;;5072337;28;20178;-70